Time;durP1;ratioP1;P1;durP2;ratioP2;P2;SDS_P1;SDS_P2;PMS_P1;PMS_P2;Temp;Humidity;BMP_temperature;BMP_pressure;BME280_temperature;BME280_humidity;BME280_pressure;Samples;Min_cycle;Max_cycle;Signal;HPM_P1;HPM_P2
2022/06/06 00:00:38;;;;;;;98.80;28.47;;;;;;;;;;4967489;28;20631;-72
2022/06/06 00:03:03;;;;;;;87.00;27.73;;;;;;;;;;4961797;28;20268;-70
2022/06/06 00:05:28;;;;;;;83.63;25.80;;;;;;;;;;4963588;28;20061;-71
2022/06/06 00:07:54;;;;;;;90.23;25.93;;;;;;;;;;4968432;28;20269;-68
2022/06/06 00:10:19;;;;;;;92.22;26.42;;;;;;;;;;4967530;28;20026;-68
2022/06/06 00:12:44;;;;;;;97.47;28.07;;;;;;;;;;4970160;28;20338;-69
2022/06/06 00:15:10;;;;;;;95.97;27.87;;;;;;;;;;4965569;28;20321;-70
2022/06/06 00:17:36;;;;;;;97.95;27.65;;;;;;;;;;4969367;28;20292;-70
2022/06/06 00:20:02;;;;;;;88.38;26.30;;;;;;;;;;4964961;28;20024;-68
2022/06/06 00:22:27;;;;;;;93.65;26.15;;;;;;;;;;4964540;28;20508;-68
2022/06/06 00:24:52;;;;;;;89.85;24.45;;;;;;;;;;4964503;28;20065;-69
2022/06/06 00:27:18;;;;;;;91.07;24.33;;;;;;;;;;4966138;28;20425;-69
2022/06/06 00:29:43;;;;;;;86.30;25.03;;;;;;;;;;4964894;28;20093;-68
2022/06/06 00:34:52;;;;;;;;;;;;;;;;;;4968313;28;20275;-69
2022/06/06 00:37:29;;;;;;;80.18;25.15;;;;;;;;;;4966849;28;19918;-69
2022/06/06 00:39:55;;;;;;;95.47;26.55;;;;;;;;;;4965744;28;22342;-68
2022/06/06 00:42:23;;;;;;;80.50;24.60;;;;;;;;;;4966377;28;20027;-69
2022/06/06 00:44:50;;;;;;;89.03;24.45;;;;;;;;;;4964918;28;20045;-68
2022/06/06 00:47:15;;;;;;;83.07;25.92;;;;;;;;;;4964102;28;20031;-70
2022/06/06 00:49:45;;;;;;;87.15;24.83;;;;;;;;;;4967975;28;20037;-68
2022/06/06 00:52:14;;;;;;;78.30;22.05;;;;;;;;;;4963834;28;20486;-68
2022/06/06 00:54:40;;;;;;;78.30;22.70;;;;;;;;;;4962825;28;20058;-69
2022/06/06 00:57:08;;;;;;;85.63;24.98;;;;;;;;;;4968303;28;20030;-69
2022/06/06 00:59:35;;;;;;;78.47;23.10;;;;;;;;;;4982685;28;20555;-68
2022/06/06 01:02:00;;;;;;;73.97;21.17;;;;;;;;;;4968915;28;20537;-68
2022/06/06 01:04:27;;;;;;;87.53;24.05;;;;;;;;;;4964474;28;20076;-68
2022/06/06 01:06:52;;;;;;;81.85;24.33;;;;;;;;;;4965068;28;20026;-68
2022/06/06 01:09:18;;;;;;;87.67;25.23;;;;;;;;;;4964252;28;20496;-68
2022/06/06 01:11:46;;;;;;;71.32;22.73;;;;;;;;;;4964391;28;20276;-68
2022/06/06 01:14:12;;;;;;;84.25;24.23;;;;;;;;;;4965596;28;20023;-68
2022/06/06 01:16:44;;;;;;;78.10;21.90;;;;;;;;;;4969370;28;20041;-68
2022/06/06 01:19:31;;;;;;;72.53;22.38;;;;;;;;;;4961459;28;20019;-69
2022/06/06 01:22:15;;;;;;;62.42;21.33;;;;;;;;;;4967998;28;20066;-69
2022/06/06 01:24:58;;;;;;;74.15;21.83;;;;;;;;;;4967829;28;20061;-68
2022/06/06 01:27:42;;;;;;;76.82;22.23;;;;;;;;;;4972938;28;20030;-68
2022/06/06 01:30:12;;;;;;;76.15;20.88;;;;;;;;;;4959539;28;20492;-68
2022/06/06 01:32:41;;;;;;;77.30;21.27;;;;;;;;;;4965246;28;20380;-68
2022/06/06 01:35:06;;;;;;;81.55;23.02;;;;;;;;;;4965043;28;20019;-68
2022/06/06 01:37:32;;;;;;;69.00;20.70;;;;;;;;;;4965305;28;20027;-68
2022/06/06 01:39:59;;;;;;;74.35;22.77;;;;;;;;;;4958025;28;20749;-68
2022/06/06 01:42:29;;;;;;;78.57;22.05;;;;;;;;;;4963604;28;20062;-68
2022/06/06 01:45:10;;;;;;;68.05;20.25;;;;;;;;;;4964318;28;20465;-68
2022/06/06 01:48:02;;;;;;;69.97;20.30;;;;;;;;;;4968975;28;20476;-67
2022/06/06 01:50:27;;;;;;;72.68;22.92;;;;;;;;;;4962073;28;20074;-69
2022/06/06 01:52:55;;;;;;;70.07;19.23;;;;;;;;;;4966987;28;20072;-69
2022/06/06 01:55:20;;;;;;;57.13;17.63;;;;;;;;;;4966137;28;20026;-69
2022/06/06 01:57:46;;;;;;;63.60;19.42;;;;;;;;;;4965638;28;20029;-69
2022/06/06 02:00:12;;;;;;;60.42;17.30;;;;;;;;;;4955984;28;20026;-68
2022/06/06 02:02:41;;;;;;;60.55;18.08;;;;;;;;;;4960528;28;20027;-70
2022/06/06 02:05:07;;;;;;;52.08;17.63;;;;;;;;;;4962923;28;20118;-68
2022/06/06 02:07:33;;;;;;;54.88;17.63;;;;;;;;;;4964307;28;20058;-68
2022/06/06 02:09:58;;;;;;;47.53;16.25;;;;;;;;;;4965457;28;20041;-68
2022/06/06 02:12:23;;;;;;;54.30;17.00;;;;;;;;;;4962866;28;20320;-68
2022/06/06 02:14:48;;;;;;;56.45;17.75;;;;;;;;;;4964426;28;20281;-70
2022/06/06 02:17:13;;;;;;;48.90;14.90;;;;;;;;;;4978345;28;20030;-68
2022/06/06 02:19:39;;;;;;;45.83;13.80;;;;;;;;;;4969885;28;20058;-68
2022/06/06 02:22:04;;;;;;;48.15;15.38;;;;;;;;;;4963289;28;20433;-68
2022/06/06 02:24:30;;;;;;;35.47;12.55;;;;;;;;;;4964891;28;20117;-70
2022/06/06 02:26:55;;;;;;;45.50;12.27;;;;;;;;;;4970906;28;20553;-69
2022/06/06 02:29:20;;;;;;;33.17;11.27;;;;;;;;;;4964298;28;20405;-69
2022/06/06 02:31:45;;;;;;;36.67;12.00;;;;;;;;;;4964851;28;20037;-69
2022/06/06 02:34:11;;;;;;;33.55;12.60;;;;;;;;;;4962859;28;20500;-68
2022/06/06 02:36:36;;;;;;;35.17;11.73;;;;;;;;;;4964955;28;20555;-69
2022/06/06 02:39:02;;;;;;;37.85;12.52;;;;;;;;;;4964234;28;20286;-69
2022/06/06 02:41:28;;;;;;;46.75;14.00;;;;;;;;;;4964645;28;20631;-70
2022/06/06 02:43:54;;;;;;;45.05;14.13;;;;;;;;;;4968725;28;20057;-69
2022/06/06 02:46:19;;;;;;;57.60;19.15;;;;;;;;;;4963219;28;20039;-70
2022/06/06 02:48:44;;;;;;;52.60;17.02;;;;;;;;;;4971452;28;20112;-70
2022/06/06 02:51:10;;;;;;;68.05;21.10;;;;;;;;;;4963023;28;20374;-69
2022/06/06 02:53:35;;;;;;;75.53;21.63;;;;;;;;;;4964599;28;20027;-70
2022/06/06 02:56:00;;;;;;;79.13;26.60;;;;;;;;;;4963651;28;20062;-70
2022/06/06 02:58:26;;;;;;;79.43;24.63;;;;;;;;;;4966862;28;20027;-69
2022/06/06 03:01:06;;;;;;;75.72;23.73;;;;;;;;;;4962908;28;20026;-69
2022/06/06 03:03:31;;;;;;;88.30;29.75;;;;;;;;;;4967218;28;20029;-69
2022/06/06 03:06:02;;;;;;;108.07;32.17;;;;;;;;;;4970328;28;20416;-68
2022/06/06 03:08:30;;;;;;;109.57;32.08;;;;;;;;;;4967719;28;20498;-68
2022/06/06 03:11:06;;;;;;;103.68;31.50;;;;;;;;;;4967605;28;20054;-68
2022/06/06 03:13:50;;;;;;;118.68;31.90;;;;;;;;;;4966698;28;20072;-67
2022/06/06 03:21:56;;;;;;;113.68;34.90;;;;;;;;;;4957394;28;20263;-69
2022/06/06 03:24:36;;;;;;;110.05;32.00;;;;;;;;;;4962488;28;20429;-68
2022/06/06 03:27:07;;;;;;;97.80;31.92;;;;;;;;;;4966854;28;20110;-68
2022/06/06 03:29:53;;;;;;;110.32;33.42;;;;;;;;;;4966330;28;20454;-68
2022/06/06 03:32:34;;;;;;;116.75;32.25;;;;;;;;;;4963527;28;20018;-69
2022/06/06 03:35:05;;;;;;;119.70;33.58;;;;;;;;;;4962609;28;20050;-70
2022/06/06 03:37:35;;;;;;;143.35;43.13;;;;;;;;;;4963187;28;20372;-69
2022/06/06 03:40:06;;;;;;;121.85;31.83;;;;;;;;;;4965796;28;20030;-69
2022/06/06 03:42:37;;;;;;;134.57;37.30;;;;;;;;;;4968818;28;20031;-70
2022/06/06 03:45:08;;;;;;;128.02;36.00;;;;;;;;;;4964341;28;20034;-69
2022/06/06 03:47:56;;;;;;;137.43;39.08;;;;;;;;;;4972099;28;20030;-69
2022/06/06 03:50:29;;;;;;;141.60;37.88;;;;;;;;;;4968433;28;20232;-69
2022/06/06 03:53:09;;;;;;;156.27;45.30;;;;;;;;;;4967349;28;20039;-70
2022/06/06 03:55:34;;;;;;;137.05;36.08;;;;;;;;;;4965763;28;20457;-71
2022/06/06 03:58:00;;;;;;;126.78;34.63;;;;;;;;;;4968373;28;20115;-68
2022/06/06 04:00:26;;;;;;;133.57;35.78;;;;;;;;;;4969950;28;20146;-69
2022/06/06 04:02:53;;;;;;;135.57;36.60;;;;;;;;;;4970778;28;20040;-69
2022/06/06 04:05:20;;;;;;;147.40;47.35;;;;;;;;;;4966715;28;20811;-72
2022/06/06 04:07:45;;;;;;;123.07;38.88;;;;;;;;;;4967399;28;20038;-72
2022/06/06 04:10:11;;;;;;;125.57;35.03;;;;;;;;;;4968403;28;20030;-68
2022/06/06 04:12:42;;;;;;;126.00;37.65;;;;;;;;;;4969585;28;20026;-68
2022/06/06 04:15:23;;;;;;;112.45;33.30;;;;;;;;;;4965375;28;20059;-68
2022/06/06 04:17:48;;;;;;;114.25;35.17;;;;;;;;;;4967221;28;20038;-71
2022/06/06 04:20:19;;;;;;;118.85;36.83;;;;;;;;;;4967844;28;20027;-69
2022/06/06 04:22:58;;;;;;;108.15;35.25;;;;;;;;;;4965924;28;20031;-69
2022/06/06 04:25:35;;;;;;;110.78;34.85;;;;;;;;;;4969012;28;20019;-69
2022/06/06 04:28:09;;;;;;;95.45;34.53;;;;;;;;;;4967289;28;20077;-70
2022/06/06 04:30:39;;;;;;;110.65;42.72;;;;;;;;;;4967412;28;20027;-71
2022/06/06 04:33:16;;;;;;;85.32;30.55;;;;;;;;;;4966469;28;20058;-70
2022/06/06 04:36:01;;;;;;;83.43;31.23;;;;;;;;;;4966841;28;20422;-67
2022/06/06 04:38:30;;;;;;;81.15;28.88;;;;;;;;;;4975635;28;20122;-68
2022/06/06 04:41:11;;;;;;;80.07;30.08;;;;;;;;;;4969067;28;20137;-69
2022/06/06 04:43:43;;;;;;;76.75;28.40;;;;;;;;;;4968727;28;20050;-70
2022/06/06 04:46:08;;;;;;;88.30;34.90;;;;;;;;;;4963851;28;21774;-72
2022/06/06 04:48:34;;;;;;;88.88;36.13;;;;;;;;;;4966429;28;20384;-71
2022/06/06 04:51:00;;;;;;;74.07;27.00;;;;;;;;;;4969203;28;20066;-72
2022/06/06 04:53:26;;;;;;;79.57;34.15;;;;;;;;;;4964091;28;20062;-69
2022/06/06 04:55:53;;;;;;;73.07;25.60;;;;;;;;;;4966962;28;20069;-73
2022/06/06 04:58:19;;;;;;;68.72;27.13;;;;;;;;;;4966713;28;20038;-69
2022/06/06 05:00:44;;;;;;;66.70;27.88;;;;;;;;;;4967999;28;20042;-71
2022/06/06 05:03:10;;;;;;;67.00;27.60;;;;;;;;;;4971548;28;20034;-70
2022/06/06 05:05:42;;;;;;;61.28;24.25;;;;;;;;;;4969279;28;20027;-70
2022/06/06 05:08:31;;;;;;;64.15;25.67;;;;;;;;;;4968881;28;20102;-74
2022/06/06 05:11:08;;;;;;;61.20;25.38;;;;;;;;;;4972404;28;20037;-72
2022/06/06 05:13:48;;;;;;;62.70;26.13;;;;;;;;;;4969807;28;20045;-72
2022/06/06 05:16:31;;;;;;;55.75;26.25;;;;;;;;;;4980364;28;20027;-72
2022/06/06 05:19:01;;;;;;;52.25;22.30;;;;;;;;;;4966874;28;20492;-69
2022/06/06 05:21:45;;;;;;;64.88;25.10;;;;;;;;;;4970621;28;20301;-72
2022/06/06 05:24:13;;;;;;;58.95;25.27;;;;;;;;;;4969500;28;20022;-72
2022/06/06 05:26:45;;;;;;;55.38;25.02;;;;;;;;;;4966768;28;20026;-72
2022/06/06 05:29:24;;;;;;;51.45;22.52;;;;;;;;;;4971044;28;20038;-73
2022/06/06 05:32:11;;;;;;;53.70;22.05;;;;;;;;;;4969485;28;20405;-68
2022/06/06 05:34:48;;;;;;;48.80;24.75;;;;;;;;;;4966602;28;20031;-71
2022/06/06 05:37:32;;;;;;;45.70;20.58;;;;;;;;;;4964250;28;20063;-70
2022/06/06 05:40:26;;;;;;;48.33;20.77;;;;;;;;;;4970854;28;20086;-72
2022/06/06 05:43:10;;;;;;;53.13;24.40;;;;;;;;;;4957266;28;20473;-72
2022/06/06 05:45:38;;;;;;;53.60;23.07;;;;;;;;;;4969088;28;20029;-72
2022/06/06 05:48:22;;;;;;;54.63;24.55;;;;;;;;;;4968254;28;20037;-69
2022/06/06 05:50:50;;;;;;;48.35;21.20;;;;;;;;;;4974948;28;20053;-70
2022/06/06 05:53:15;;;;;;;46.22;21.40;;;;;;;;;;4962774;28;20030;-69
2022/06/06 05:55:58;;;;;;;56.70;22.67;;;;;;;;;;4971712;28;20511;-69
2022/06/06 05:58:34;;;;;;;50.53;21.98;;;;;;;;;;4967001;28;20295;-72
2022/06/06 06:01:03;;;;;;;51.75;25.70;;;;;;;;;;4963912;28;20061;-70
2022/06/06 06:03:30;;;;;;;41.15;20.40;;;;;;;;;;4966482;28;20019;-70
2022/06/06 06:05:59;;;;;;;42.45;20.48;;;;;;;;;;4969336;28;20060;-69
2022/06/06 06:08:37;;;;;;;44.05;24.85;;;;;;;;;;4968269;28;20465;-72
2022/06/06 06:11:11;;;;;;;40.95;21.10;;;;;;;;;;4967325;28;20022;-70
2022/06/06 06:13:42;;;;;;;41.67;22.00;;;;;;;;;;4964266;28;20480;-73
2022/06/06 06:16:10;;;;;;;36.00;17.48;;;;;;;;;;4961642;28;20054;-71
2022/06/06 06:18:58;;;;;;;37.25;19.27;;;;;;;;;;4964588;28;20506;-73
2022/06/06 06:21:24;;;;;;;34.50;20.00;;;;;;;;;;4971416;28;20062;-72
2022/06/06 06:23:56;;;;;;;35.38;20.42;;;;;;;;;;4967544;28;20542;-72
2022/06/06 06:26:22;;;;;;;36.25;23.65;;;;;;;;;;4976545;28;20041;-70
2022/06/06 06:28:48;;;;;;;35.25;21.30;;;;;;;;;;4970162;28;20030;-70
2022/06/06 06:31:32;;;;;;;41.65;27.40;;;;;;;;;;4971521;28;20023;-74
2022/06/06 06:34:03;;;;;;;36.78;19.70;;;;;;;;;;4971423;28;20172;-72
2022/06/06 06:36:46;;;;;;;34.45;17.55;;;;;;;;;;4974844;28;20051;-72
2022/06/06 06:39:25;;;;;;;27.48;15.73;;;;;;;;;;4967784;28;20027;-70
2022/06/06 06:41:59;;;;;;;28.95;19.55;;;;;;;;;;4969690;28;20023;-71
2022/06/06 06:44:30;;;;;;;35.15;22.48;;;;;;;;;;4977175;28;20054;-71
2022/06/06 06:46:59;;;;;;;29.42;16.45;;;;;;;;;;4977041;28;20031;-69
2022/06/06 06:49:39;;;;;;;28.05;14.30;;;;;;;;;;4982109;28;20073;-72
2022/06/06 06:52:14;;;;;;;23.98;15.90;;;;;;;;;;4955373;28;20033;-71
2022/06/06 06:54:57;;;;;;;24.48;12.82;;;;;;;;;;4956898;28;20132;-70
2022/06/06 06:57:39;;;;;;;22.88;13.90;;;;;;;;;;4957490;28;20035;-70
2022/06/06 07:00:16;;;;;;;15.63;11.48;;;;;;;;;;4959867;28;20026;-73
2022/06/06 07:08:34;;;;;;;19.92;11.02;;;;;;;;;;4961868;28;20062;-70
2022/06/06 07:11:02;;;;;;;18.52;12.13;;;;;;;;;;4966488;28;20042;-71
2022/06/06 07:13:41;;;;;;;19.90;11.98;;;;;;;;;;4986679;28;20031;-68
2022/06/06 07:16:18;;;;;;;20.05;12.40;;;;;;;;;;4974933;28;20556;-68
2022/06/06 07:18:45;;;;;;;23.23;17.10;;;;;;;;;;4974366;28;20328;-69
2022/06/06 07:21:12;;;;;;;19.30;12.60;;;;;;;;;;4969392;28;20120;-70
2022/06/06 07:23:39;;;;;;;18.65;14.40;;;;;;;;;;4971791;28;20453;-72
2022/06/06 07:26:04;;;;;;;19.02;11.80;;;;;;;;;;4981495;28;20085;-70
2022/06/06 07:28:30;;;;;;;17.92;12.45;;;;;;;;;;4979670;28;20022;-70
2022/06/06 07:31:03;;;;;;;18.80;12.63;;;;;;;;;;4974735;28;20065;-70
2022/06/06 07:33:46;;;;;;;18.50;11.00;;;;;;;;;;4971975;28;20035;-69
2022/06/06 07:36:18;;;;;;;12.48;10.63;;;;;;;;;;4981058;28;20152;-72
2022/06/06 07:39:02;;;;;;;14.80;10.95;;;;;;;;;;4965607;28;20466;-72
2022/06/06 07:41:33;;;;;;;15.52;11.23;;;;;;;;;;4981180;28;20022;-69
2022/06/06 07:44:24;;;;;;;16.88;11.38;;;;;;;;;;4970811;28;20034;-69
2022/06/06 07:46:56;;;;;;;11.45;9.27;;;;;;;;;;4969146;28;20125;-71
2022/06/06 07:49:24;;;;;;;14.38;9.27;;;;;;;;;;4973492;28;20081;-71
2022/06/06 07:51:49;;;;;;;13.15;9.27;;;;;;;;;;4974075;28;20030;-71
2022/06/06 07:54:27;;;;;;;10.98;8.45;;;;;;;;;;4975187;28;20550;-71
2022/06/06 07:56:52;;;;;;;9.52;8.20;;;;;;;;;;4983884;28;20564;-72
2022/06/06 07:59:32;;;;;;;8.63;7.72;;;;;;;;;;4969463;28;20040;-72
2022/06/06 08:01:57;;;;;;;9.30;8.02;;;;;;;;;;4976426;28;20466;-70
2022/06/06 08:04:58;;;;;;;6.93;6.35;;;;;;;;;;4976466;28;20035;-73
2022/06/06 08:07:39;;;;;;;6.60;6.07;;;;;;;;;;4949882;28;20011;-72
2022/06/06 08:10:22;;;;;;;8.05;6.30;;;;;;;;;;4966012;28;20168;-75
2022/06/06 08:13:04;;;;;;;7.50;6.80;;;;;;;;;;4971536;28;20146;-69
2022/06/06 08:15:29;;;;;;;9.10;6.30;;;;;;;;;;4970355;28;20027;-68
2022/06/06 08:18:12;;;;;;;5.83;5.30;;;;;;;;;;4970646;28;20037;-70
2022/06/06 08:20:42;;;;;;;6.80;6.20;;;;;;;;;;4967278;28;20356;-70
2022/06/06 08:23:08;;;;;;;8.00;6.40;;;;;;;;;;4969915;28;20097;-68
2022/06/06 08:25:36;;;;;;;8.25;6.38;;;;;;;;;;4969925;28;20520;-69
2022/06/06 08:28:02;;;;;;;7.68;5.75;;;;;;;;;;4968859;28;20027;-69
2022/06/06 08:30:27;;;;;;;6.60;6.03;;;;;;;;;;4970681;28;20062;-72
2022/06/06 08:32:52;;;;;;;8.68;5.68;;;;;;;;;;4966840;28;20031;-69
2022/06/06 08:35:18;;;;;;;6.93;6.43;;;;;;;;;;4965370;28;20486;-69
2022/06/06 08:38:02;;;;;;;12.48;6.10;;;;;;;;;;4966643;28;20284;-70
2022/06/06 08:40:44;;;;;;;6.47;5.85;;;;;;;;;;4970869;28;20038;-71
2022/06/06 08:43:18;;;;;;;5.90;5.40;;;;;;;;;;4972727;28;20493;-70
2022/06/06 08:46:02;;;;;;;7.38;6.00;;;;;;;;;;4965635;28;20026;-72
2022/06/06 08:48:39;;;;;;;5.90;5.40;;;;;;;;;;4966921;28;20166;-73
2022/06/06 08:51:07;;;;;;;6.75;6.00;;;;;;;;;;4974220;28;20080;-70
2022/06/06 08:53:44;;;;;;;10.32;5.82;;;;;;;;;;4977359;28;20026;-71
2022/06/06 08:56:31;;;;;;;7.60;6.38;;;;;;;;;;4971290;28;20026;-70
2022/06/06 08:59:04;;;;;;;7.20;6.60;;;;;;;;;;4967908;28;20047;-69
2022/06/06 09:01:52;;;;;;;6.70;6.03;;;;;;;;;;4976847;28;20018;-73
2022/06/06 09:04:23;;;;;;;6.05;5.63;;;;;;;;;;4976027;28;20077;-70
2022/06/06 09:06:58;;;;;;;11.45;5.95;;;;;;;;;;4969380;28;20446;-69
2022/06/06 09:09:45;;;;;;;4.93;4.60;;;;;;;;;;4979589;28;20061;-73
2022/06/06 09:12:10;;;;;;;6.40;5.53;;;;;;;;;;4972130;28;20102;-70
2022/06/06 09:14:51;;;;;;;5.10;4.70;;;;;;;;;;4974470;28;20036;-69
2022/06/06 09:17:37;;;;;;;3.78;3.40;;;;;;;;;;4970160;28;20138;-73
2022/06/06 09:20:17;;;;;;;7.88;3.63;;;;;;;;;;4976794;28;20073;-72
2022/06/06 09:22:44;;;;;;;4.07;2.97;;;;;;;;;;4976644;28;20023;-73
2022/06/06 09:25:13;;;;;;;4.03;2.90;;;;;;;;;;4975792;28;20015;-70
2022/06/06 09:27:39;;;;;;;3.25;2.80;;;;;;;;;;4970044;28;20027;-69
2022/06/06 09:30:06;;;;;;;3.97;2.80;;;;;;;;;;4966836;28;20222;-71
2022/06/06 09:32:40;;;;;;;5.88;2.80;;;;;;;;;;4958341;28;20019;-72
2022/06/06 09:35:24;;;;;;;5.25;2.70;;;;;;;;;;4964545;28;20421;-72
2022/06/06 09:38:00;;;;;;;4.57;2.45;;;;;;;;;;4959118;28;20034;-68
2022/06/06 09:40:44;;;;;;;2.90;2.70;;;;;;;;;;4970542;28;20113;-71
2022/06/06 09:43:29;;;;;;;3.92;3.63;;;;;;;;;;4967670;28;20027;-75
2022/06/06 09:45:57;;;;;;;5.15;3.95;;;;;;;;;;4963374;28;20441;-69
2022/06/06 09:48:41;;;;;;;4.30;3.53;;;;;;;;;;4966777;28;20023;-69
2022/06/06 09:51:22;;;;;;;6.20;4.05;;;;;;;;;;4969861;28;20035;-71
2022/06/06 09:59:01;;;;;;;4.05;3.63;;;;;;;;;;4955915;28;20023;-69
2022/06/06 09:59:44;;;;;;;5.25;3.70;;;;;;;;;;4962182;28;20042;-70
2022/06/06 10:02:28;;;;;;;4.90;3.80;;;;;;;;;;4960844;28;20034;-71
2022/06/06 10:05:13;;;;;;;6.22;3.95;;;;;;;;;;4963989;28;20030;-71
2022/06/06 10:07:57;;;;;;;3.47;2.90;;;;;;;;;;4975748;28;20416;-73
2022/06/06 10:10:36;;;;;;;2.80;2.00;;;;;;;;;;4962755;28;20023;-73
2022/06/06 10:13:06;;;;;;;3.42;2.33;;;;;;;;;;4959868;28;20027;-73
2022/06/06 10:15:39;;;;;;;3.17;2.55;;;;;;;;;;4962096;28;20026;-70
2022/06/06 10:18:07;;;;;;;2.15;1.95;;;;;;;;;;4965284;28;20384;-69
2022/06/06 10:20:38;;;;;;;2.13;1.92;;;;;;;;;;4965160;28;20491;-69
2022/06/06 10:23:18;;;;;;;2.63;1.80;;;;;;;;;;4964906;28;20031;-73
2022/06/06 10:25:52;;;;;;;5.72;2.15;;;;;;;;;;4963354;28;20034;-71
2022/06/06 10:28:27;;;;;;;2.90;1.80;;;;;;;;;;4969538;28;20035;-72
2022/06/06 10:31:11;;;;;;;2.25;1.70;;;;;;;;;;4967097;28;20026;-70
2022/06/06 10:33:36;;;;;;;;;;;;;;;;;;4964986;28;20021;-71
2022/06/06 10:36:17;;;;;;;2.80;1.65;;;;;;;;;;4966229;28;19913;-70
2022/06/06 10:39:01;;;;;;;4.97;1.38;;;;;;;;;;4962948;28;20103;-68
2022/06/06 10:41:40;;;;;;;2.25;1.27;;;;;;;;;;4962460;28;20030;-71
2022/06/06 10:44:15;;;;;;;2.40;1.55;;;;;;;;;;4971530;28;20030;-69
2022/06/06 10:46:47;;;;;;;1.67;1.30;;;;;;;;;;4962682;28;20438;-69
2022/06/06 10:49:26;;;;;;;1.70;1.60;;;;;;;;;;4966474;28;20087;-69
2022/06/06 10:52:11;;;;;;;8.65;1.98;;;;;;;;;;4957979;28;20031;-70
2022/06/06 10:54:36;;;;;;;3.17;1.40;;;;;;;;;;4966980;28;20030;-70
2022/06/06 10:57:01;;;;;;;2.53;1.70;;;;;;;;;;4975701;28;20089;-71
2022/06/06 10:59:45;;;;;;;1.45;1.30;;;;;;;;;;4960947;28;20033;-73
2022/06/06 11:02:10;;;;;;;2.67;1.40;;;;;;;;;;4966015;28;20473;-71
2022/06/06 11:04:47;;;;;;;3.22;1.40;;;;;;;;;;4980845;28;20035;-68
2022/06/06 11:07:24;;;;;;;5.15;1.60;;;;;;;;;;4958196;28;20372;-72
2022/06/06 11:10:10;;;;;;;1.88;1.30;;;;;;;;;;4966456;28;20210;-71
2022/06/06 11:12:45;;;;;;;1.27;1.10;;;;;;;;;;4964639;28;20091;-71
2022/06/06 11:15:10;;;;;;;5.82;1.40;;;;;;;;;;4956614;28;20074;-70
2022/06/06 11:17:38;;;;;;;4.35;1.00;;;;;;;;;;4957438;28;20034;-73
2022/06/06 11:20:21;;;;;;;7.32;1.10;;;;;;;;;;4960761;28;20025;-70
2022/06/06 11:23:04;;;;;;;4.33;1.07;;;;;;;;;;4960124;28;20370;-73
2022/06/06 11:25:37;;;;;;;1.93;1.20;;;;;;;;;;4967535;28;20026;-69
2022/06/06 11:28:27;;;;;;;5.15;1.42;;;;;;;;;;4964321;28;20022;-73
2022/06/06 11:31:00;;;;;;;2.80;1.20;;;;;;;;;;4965933;28;20053;-73
2022/06/06 11:33:44;;;;;;;1.63;1.08;;;;;;;;;;4956673;28;20027;-70
2022/06/06 11:36:25;;;;;;;3.17;1.30;;;;;;;;;;4976580;28;20062;-74
2022/06/06 11:39:11;;;;;;;2.78;1.50;;;;;;;;;;4963261;28;20026;-71
2022/06/06 11:41:38;;;;;;;2.40;1.20;;;;;;;;;;4964389;28;20555;-73
2022/06/06 11:44:12;;;;;;;1.67;1.58;;;;;;;;;;4963637;28;20431;-72
2022/06/06 11:46:37;;;;;;;;;;;;;;;;;;4962326;28;20070;-77
2022/06/06 11:49:13;;;;;;;1.67;1.38;;;;;;;;;;4963624;28;19910;-71
2022/06/06 11:51:57;;;;;;;1.60;1.20;;;;;;;;;;4960125;28;20026;-73
2022/06/06 11:54:41;;;;;;;2.70;1.42;;;;;;;;;;4956229;28;20102;-71
2022/06/06 11:57:22;;;;;;;2.65;1.38;;;;;;;;;;4982089;28;20030;-70
2022/06/06 12:00:06;;;;;;;1.83;1.30;;;;;;;;;;4961493;28;20326;-75
2022/06/06 12:02:31;;;;;;;1.70;1.23;;;;;;;;;;4961756;28;20102;-75
2022/06/06 12:05:15;;;;;;;1.92;1.45;;;;;;;;;;4962134;28;20041;-72
2022/06/06 12:07:52;;;;;;;10.93;2.00;;;;;;;;;;4962994;28;20023;-73
2022/06/06 12:10:20;;;;;;;3.95;1.25;;;;;;;;;;4965174;28;20097;-71
2022/06/06 12:12:51;;;;;;;3.63;1.30;;;;;;;;;;4966541;28;20097;-73
2022/06/06 12:15:17;;;;;;;2.38;1.35;;;;;;;;;;4971404;28;20026;-71
2022/06/06 12:18:05;;;;;;;1.40;1.30;;;;;;;;;;4962923;28;20063;-72
2022/06/06 12:20:40;;;;;;;3.67;1.40;;;;;;;;;;4966888;28;20031;-72
2022/06/06 12:23:05;;;;;;;1.25;1.20;;;;;;;;;;4968186;28;20019;-71
2022/06/06 12:25:49;;;;;;;4.75;1.67;;;;;;;;;;4955256;28;20030;-72
2022/06/06 12:28:34;;;;;;;1.55;1.30;;;;;;;;;;4969142;28;20086;-71
2022/06/06 12:31:17;;;;;;;3.38;1.33;;;;;;;;;;4968547;28;20019;-72
2022/06/06 12:33:47;;;;;;;3.37;1.70;;;;;;;;;;4964214;28;20027;-70
2022/06/06 12:36:20;;;;;;;2.55;1.63;;;;;;;;;;4958026;28;20035;-71
2022/06/06 12:39:00;;;;;;;3.33;1.73;;;;;;;;;;4963615;28;20034;-71
2022/06/06 12:41:32;;;;;;;1.73;1.63;;;;;;;;;;4963669;28;20098;-72
2022/06/06 12:43:59;;;;;;;4.90;2.10;;;;;;;;;;4968755;28;20891;-71
2022/06/06 12:46:44;;;;;;;5.95;1.77;;;;;;;;;;4964246;28;20034;-70
2022/06/06 12:49:30;;;;;;;4.65;1.80;;;;;;;;;;4965249;28;20677;-73
2022/06/06 12:52:02;;;;;;;8.45;1.90;;;;;;;;;;4962123;28;20409;-71
2022/06/06 12:57:48;;;;;;;1.95;1.75;;;;;;;;;;4963900;28;20055;-71
2022/06/06 13:00:14;;;;;;;3.72;1.83;;;;;;;;;;4968095;28;20106;-71
2022/06/06 13:02:58;;;;;;;1.52;1.42;;;;;;;;;;4970486;28;20113;-71
2022/06/06 13:05:44;;;;;;;6.85;2.00;;;;;;;;;;4969383;28;20030;-71
2022/06/06 13:08:09;;;;;;;5.35;1.80;;;;;;;;;;4962652;28;20034;-70
2022/06/06 13:10:37;;;;;;;3.70;2.10;;;;;;;;;;4966347;28;20528;-71
2022/06/06 13:13:15;;;;;;;1.92;1.38;;;;;;;;;;4963071;28;20027;-71
2022/06/06 13:15:45;;;;;;;2.33;1.75;;;;;;;;;;4965459;28;20049;-72
2022/06/06 13:18:16;;;;;;;2.47;1.70;;;;;;;;;;4976978;28;20106;-71
2022/06/06 13:20:54;;;;;;;5.30;1.80;;;;;;;;;;4962042;28;20015;-71
2022/06/06 13:23:34;;;;;;;2.17;1.92;;;;;;;;;;4962792;28;20027;-71
2022/06/06 13:26:07;;;;;;;4.88;2.03;;;;;;;;;;4962860;28;20109;-71
2022/06/06 13:28:40;;;;;;;1.92;1.77;;;;;;;;;;4961836;28;20023;-71
2022/06/06 13:31:21;;;;;;;4.80;1.90;;;;;;;;;;4965148;28;20895;-73
2022/06/06 13:34:25;;;;;;;2.15;1.70;;;;;;;;;;4961051;28;20435;-71
2022/06/06 13:36:50;;;;;;;2.10;1.80;;;;;;;;;;4925646;29;20039;-75
2022/06/06 13:39:36;;;;;;;1.85;1.63;;;;;;;;;;4922678;29;20050;-71
2022/06/06 13:42:07;;;;;;;2.25;1.80;;;;;;;;;;4944908;28;20046;-72
2022/06/06 13:44:51;;;;;;;4.15;2.25;;;;;;;;;;4967725;28;20118;-74
2022/06/06 13:47:26;;;;;;;2.95;1.85;;;;;;;;;;4958776;28;20027;-75
2022/06/06 13:49:57;;;;;;;7.78;2.05;;;;;;;;;;4969621;28;20030;-70
2022/06/06 13:52:28;;;;;;;2.20;2.00;;;;;;;;;;4961456;28;20030;-75
2022/06/06 13:54:54;;;;;;;4.70;2.28;;;;;;;;;;4965928;28;22159;-74
2022/06/06 13:57:26;;;;;;;3.43;2.27;;;;;;;;;;4960796;28;20027;-69
2022/06/06 13:59:57;;;;;;;2.38;2.00;;;;;;;;;;4962400;28;20292;-71
2022/06/06 14:02:31;;;;;;;3.40;2.65;;;;;;;;;;4963196;28;20019;-74
2022/06/06 14:05:15;;;;;;;5.22;1.95;;;;;;;;;;4961629;28;20065;-72
2022/06/06 14:07:53;;;;;;;2.60;2.40;;;;;;;;;;4959022;28;20027;-73
2022/06/06 14:10:18;;;;;;;2.67;2.00;;;;;;;;;;4966424;28;20026;-68
2022/06/06 14:12:50;;;;;;;2.83;2.42;;;;;;;;;;4962841;28;20669;-70
2022/06/06 14:15:17;;;;;;;4.85;2.40;;;;;;;;;;4959505;28;20023;-70
2022/06/06 14:17:53;;;;;;;2.70;1.92;;;;;;;;;;4959564;28;20050;-69
2022/06/06 14:20:29;;;;;;;4.40;2.10;;;;;;;;;;4961774;28;20022;-69
2022/06/06 14:22:54;;;;;;;3.63;2.20;;;;;;;;;;4960599;28;20022;-73
2022/06/06 14:25:20;;;;;;;2.30;2.10;;;;;;;;;;4959868;28;20030;-72
2022/06/06 14:27:45;;;;;;;4.93;2.10;;;;;;;;;;4961262;28;20294;-71
2022/06/06 14:30:13;;;;;;;3.67;2.40;;;;;;;;;;4960342;28;20031;-73
2022/06/06 14:32:41;;;;;;;4.40;2.58;;;;;;;;;;4958461;28;20026;-70
2022/06/06 14:35:16;;;;;;;4.28;2.30;;;;;;;;;;4974321;28;20041;-69
2022/06/06 14:37:42;;;;;;;4.20;2.17;;;;;;;;;;4959251;28;20481;-75
2022/06/06 14:40:09;;;;;;;2.45;2.13;;;;;;;;;;4955576;28;20426;-71
2022/06/06 14:42:36;;;;;;;3.42;2.28;;;;;;;;;;4958050;28;20030;-73
2022/06/06 14:45:03;;;;;;;3.65;2.10;;;;;;;;;;4959159;28;20057;-72
2022/06/06 14:47:29;;;;;;;5.75;1.70;;;;;;;;;;4962368;28;20025;-70
2022/06/06 14:50:46;;;;;;;2.78;1.95;;;;;;;;;;4960425;28;20034;-73
2022/06/06 14:52:53;;;;;;;3.53;2.17;;;;;;;;;;4955249;28;20204;-72
2022/06/06 14:55:19;;;;;;;2.55;1.67;;;;;;;;;;4962917;28;20018;-69
2022/06/06 14:57:45;;;;;;;4.82;1.75;;;;;;;;;;4961463;28;20034;-73
2022/06/06 15:00:15;;;;;;;2.13;2.03;;;;;;;;;;4960037;28;20456;-74
2022/06/06 15:02:40;;;;;;;5.65;2.63;;;;;;;;;;4970339;28;20268;-71
2022/06/06 15:05:23;;;;;;;2.90;2.10;;;;;;;;;;4964935;28;20405;-70
2022/06/06 15:07:49;;;;;;;4.78;2.22;;;;;;;;;;4963499;28;20030;-71
2022/06/06 15:10:33;;;;;;;4.53;2.35;;;;;;;;;;4962375;28;20082;-73
2022/06/06 15:12:58;;;;;;;4.30;2.63;;;;;;;;;;4970730;28;20018;-70
2022/06/06 15:15:26;;;;;;;2.53;2.33;;;;;;;;;;4967682;28;20824;-72
2022/06/06 15:17:52;;;;;;;3.58;3.05;;;;;;;;;;4967958;28;20081;-72
2022/06/06 15:20:20;;;;;;;3.80;2.50;;;;;;;;;;4961817;28;20425;-70
2022/06/06 15:22:46;;;;;;;7.93;2.92;;;;;;;;;;4962029;28;20029;-72